createdAt,value
2018-02-20T00:00:24.124Z,0.7
2018-02-20T00:01:24.152Z,0.74
2018-02-20T00:02:24.170Z,0.75
2018-02-20T00:03:24.140Z,0.8
2018-02-20T00:04:24.151Z,0.8
2018-02-20T00:05:24.158Z,0.83
2018-02-20T00:06:24.472Z,0.83
2018-02-20T00:07:24.156Z,0.84
2018-02-20T00:08:24.162Z,0.79
2018-02-20T00:09:24.183Z,0.78
2018-02-20T00:10:24.156Z,0.78
2018-02-20T00:11:24.165Z,0.79
2018-02-20T00:12:24.165Z,0.8
2018-02-20T00:13:24.165Z,0.81
2018-02-20T00:14:24.194Z,0.76
2018-02-20T00:15:24.177Z,0.75
2018-02-20T00:16:24.159Z,0.67
2018-02-20T00:17:24.172Z,0.6
2018-02-20T00:18:24.168Z,0.61
2018-02-20T00:19:24.237Z,0.6
2018-02-20T00:20:24.175Z,0.51
2018-02-20T00:21:24.173Z,0.55
2018-02-20T00:22:24.181Z,0.59
2018-02-20T00:23:24.206Z,0.53
2018-02-20T00:24:24.214Z,0.57
2018-02-20T00:25:24.192Z,0.5
2018-02-20T00:26:24.192Z,0.49
2018-02-20T00:27:24.212Z,0.49
2018-02-20T00:28:24.216Z,0.56
2018-02-20T00:29:24.200Z,0.57
2018-02-20T00:30:24.219Z,0.59
2018-02-20T00:31:24.227Z,0.61
2018-02-20T00:32:24.223Z,0.65
2018-02-20T00:33:24.230Z,0.64
2018-02-20T00:34:24.218Z,0.63
2018-02-20T00:35:24.227Z,0.61
2018-02-20T00:36:24.253Z,0.61
2018-02-20T00:37:24.258Z,0.62
2018-02-20T00:38:24.390Z,0.64
2018-02-20T00:39:24.402Z,0.64
2018-02-20T00:40:24.238Z,0.64
2018-02-20T00:41:24.407Z,0.69
2018-02-20T00:42:24.411Z,0.67
2018-02-20T00:43:24.411Z,0.7
2018-02-20T00:44:24.404Z,0.72
2018-02-20T00:45:24.422Z,0.76
2018-02-20T00:46:24.256Z,0.77
2018-02-20T00:47:24.314Z,0.78
2018-02-20T00:48:24.415Z,0.8
2018-02-20T00:49:24.314Z,0.81
2018-02-20T00:50:24.284Z,0.82
2018-02-20T00:51:24.257Z,0.83
2018-02-20T00:52:24.277Z,0.83
2018-02-20T00:53:24.438Z,0.87
2018-02-20T00:54:24.310Z,0.85
2018-02-20T00:55:24.291Z,0.85
2018-02-20T00:56:24.276Z,0.86
2018-02-20T00:57:24.278Z,0.86
2018-02-20T00:58:24.280Z,0.82
2018-02-20T00:59:24.274Z,0.84
2018-02-20T01:00:24.281Z,0.83
2018-02-20T01:01:24.298Z,0.8
2018-02-20T01:02:24.266Z,0.82
2018-02-20T01:03:24.274Z,0.79
2018-02-20T01:04:24.277Z,0.82
2018-02-20T01:05:24.277Z,0.82
2018-02-20T01:06:24.291Z,0.79
2018-02-20T01:07:24.277Z,0.81
2018-02-20T01:08:24.304Z,0.84
2018-02-20T01:09:24.356Z,0.85
2018-02-20T01:10:24.459Z,0.84
2018-02-20T01:11:24.318Z,0.84
2018-02-20T01:12:24.313Z,0.82
2018-02-20T01:13:24.321Z,0.83
2018-02-20T01:14:24.328Z,0.83
2018-02-20T01:15:24.308Z,0.84
2018-02-20T01:16:24.328Z,0.87
2018-02-20T01:17:24.327Z,0.87
2018-02-20T01:18:24.302Z,0.85
2018-02-20T01:19:24.314Z,0.88
2018-02-20T01:20:24.316Z,0.87
2018-02-20T01:21:24.331Z,0.87
2018-02-20T01:22:24.326Z,0.86
2018-02-20T01:23:24.343Z,0.87
2018-02-20T01:24:24.351Z,0.8
2018-02-20T01:25:24.500Z,0.8
2018-02-20T01:26:24.324Z,0.71
2018-02-20T01:27:24.333Z,0.7
2018-02-20T01:28:24.353Z,0.72
2018-02-20T01:29:24.326Z,0.76
2018-02-20T01:30:24.355Z,0.72
2018-02-20T01:31:24.338Z,0.73
2018-02-20T01:32:24.334Z,0.78
2018-02-20T01:33:24.670Z,0.78
2018-02-20T01:34:24.348Z,0.72
2018-02-20T01:35:24.368Z,0.74
2018-02-20T01:36:24.359Z,0.78
2018-02-20T01:37:24.371Z,0.78
2018-02-20T01:38:24.400Z,0.78
2018-02-20T01:39:24.388Z,0.81
2018-02-20T01:40:24.383Z,0.78
2018-02-20T01:41:24.407Z,0.78
2018-02-20T01:42:24.404Z,0.78
2018-02-20T01:43:24.441Z,0.77
2018-02-20T01:44:24.398Z,0.78
2018-02-20T01:45:24.397Z,0.77
2018-02-20T01:46:24.389Z,0.74
2018-02-20T01:47:24.394Z,0.72
2018-02-20T01:48:24.437Z,0.74
2018-02-20T01:49:24.558Z,0.73
2018-02-20T01:50:24.552Z,0.71
2018-02-20T01:51:24.560Z,0.69
2018-02-20T01:52:24.571Z,0.68
2018-02-20T01:53:24.607Z,0.65
2018-02-20T01:54:24.429Z,0.65
2018-02-20T01:55:24.577Z,0.62
2018-02-20T01:56:24.429Z,0.59
2018-02-20T01:57:24.585Z,0.63
2018-02-20T01:58:24.596Z,0.58
2018-02-20T01:59:24.438Z,0.57
2018-02-20T02:00:24.641Z,0.54
2018-02-20T02:01:24.598Z,0.56
2018-02-20T02:02:24.596Z,0.53
2018-02-20T02:03:24.444Z,0.55
2018-02-20T02:04:24.452Z,0.54
2018-02-20T02:05:24.614Z,0.57
2018-02-20T02:06:24.448Z,0.58
2018-02-20T02:07:24.466Z,0.61
2018-02-20T02:08:24.452Z,0.59
2018-02-20T02:09:24.495Z,0.62
2018-02-20T02:10:24.471Z,0.64
2018-02-20T02:11:24.617Z,0.65
2018-02-20T02:12:24.456Z,0.66
2018-02-20T02:13:24.638Z,0.69
2018-02-20T02:14:24.658Z,0.65
2018-02-20T02:15:24.477Z,0.66
2018-02-20T02:16:24.456Z,0.62
2018-02-20T02:17:24.633Z,0.62
2018-02-20T02:18:24.488Z,0.59
2018-02-20T02:19:24.480Z,0.61
2018-02-20T02:20:24.476Z,0.56
2018-02-20T02:21:24.468Z,0.51
2018-02-20T02:22:24.685Z,0.49
2018-02-20T02:23:24.487Z,0.49
2018-02-20T02:24:24.465Z,0.48
2018-02-20T02:25:24.494Z,0.47
2018-02-20T02:26:24.501Z,0.49
2018-02-20T02:27:24.480Z,0.48
2018-02-20T02:28:24.488Z,0.5
2018-02-20T02:29:24.554Z,0.49
2018-02-20T02:30:24.499Z,0.51
2018-02-20T02:31:24.517Z,0.48
2018-02-20T02:32:24.500Z,0.47
2018-02-20T02:33:24.546Z,0.47
2018-02-20T02:34:24.530Z,0.49
2018-02-20T02:35:24.575Z,0.51
2018-02-20T02:36:24.528Z,0.5
2018-02-20T02:37:24.513Z,0.49
2018-02-20T02:38:24.531Z,0.5
2018-02-20T02:39:24.527Z,0.47
2018-02-20T02:40:24.562Z,0.47
2018-02-20T02:41:24.548Z,0.44
2018-02-20T02:42:24.541Z,0.42
2018-02-20T02:43:24.546Z,0.44
2018-02-20T02:44:24.559Z,0.41
2018-02-20T02:45:24.596Z,0.39
2018-02-20T02:46:24.590Z,0.36
2018-02-20T02:47:24.552Z,0.38
2018-02-20T02:48:24.764Z,0.36
2018-02-20T02:49:24.592Z,0.37
2018-02-20T02:50:24.622Z,0.35
2018-02-20T02:51:24.602Z,0.31
2018-02-20T02:52:24.605Z,0.26
2018-02-20T02:53:24.593Z,0.27
2018-02-20T02:54:24.635Z,0.26
2018-02-20T02:55:24.619Z,0.26
2018-02-20T02:56:24.598Z,0.24
2018-02-20T02:57:24.606Z,0.25
2018-02-20T02:58:24.611Z,0.22
2018-02-20T02:59:24.605Z,0.24
2018-02-20T03:00:24.789Z,0.25
2018-02-20T03:01:24.745Z,0.29
2018-02-20T03:02:24.774Z,0.3
2018-02-20T03:03:24.790Z,0.27
2018-02-20T03:04:24.789Z,0.2
2018-02-20T03:05:24.606Z,0.22
2018-02-20T03:06:24.903Z,0.2
2018-02-20T03:07:24.772Z,0.17
2018-02-20T03:08:24.617Z,0.15
2018-02-20T03:09:24.782Z,0.16
2018-02-20T03:10:24.809Z,0.19
2018-02-20T03:11:24.649Z,0.15
2018-02-20T03:12:24.781Z,0.15
2018-02-20T03:13:24.799Z,0.13
2018-02-20T03:14:24.838Z,0.13
2018-02-20T03:15:24.779Z,0.14
2018-02-20T03:16:24.818Z,0.15
2018-02-20T03:17:24.773Z,0.12
2018-02-20T03:18:24.627Z,0.14
2018-02-20T03:19:24.808Z,0.13
2018-02-20T03:20:24.807Z,0.15
2018-02-20T03:21:24.791Z,0.15
2018-02-20T03:22:24.636Z,0.13
2018-02-20T03:23:24.854Z,0.09
2018-02-20T03:24:24.795Z,0.09
2018-02-20T03:25:24.843Z,0.09
2018-02-20T03:26:24.818Z,0.07
2018-02-20T03:27:24.810Z,0.07
2018-02-20T03:28:24.836Z,0.07
2018-02-20T03:29:25.163Z,0.05
2018-02-20T03:30:24.834Z,0.06
2018-02-20T03:31:24.852Z,0.07
2018-02-20T03:32:24.670Z,0.09
2018-02-20T03:33:24.852Z,0.09
2018-02-20T03:34:24.869Z,0.1
2018-02-20T03:35:24.848Z,0.12
2018-02-20T03:36:24.710Z,0.12
2018-02-20T03:37:24.726Z,0.13
2018-02-20T03:38:24.728Z,0.15
2018-02-20T03:39:24.740Z,0.13
2018-02-20T03:40:24.714Z,0.14
2018-02-20T03:41:24.879Z,0.13
2018-02-20T03:42:24.768Z,0.15
2018-02-20T03:43:24.757Z,0.14
2018-02-20T03:44:24.752Z,0.16
2018-02-20T03:45:24.780Z,0.19
2018-02-20T03:46:24.735Z,0.17
2018-02-20T03:47:24.731Z,0.15
2018-02-20T03:48:24.780Z,0.17
2018-02-20T03:49:24.755Z,0.16
2018-02-20T03:50:24.892Z,0.13
2018-02-20T03:51:24.733Z,0.16
2018-02-20T03:52:24.751Z,0.14
2018-02-20T03:53:24.759Z,0.15
2018-02-20T03:54:24.929Z,0.18
2018-02-20T03:55:24.744Z,0.14
2018-02-20T03:56:24.747Z,0.15
2018-02-20T03:57:24.747Z,0.18
2018-02-20T03:58:24.781Z,0.19
2018-02-20T03:59:24.767Z,0.21
2018-02-20T04:00:24.767Z,0.24
2018-02-20T04:01:24.821Z,0.25
2018-02-20T04:02:24.802Z,0.25
2018-02-20T04:03:24.789Z,0.26
2018-02-20T04:04:24.828Z,0.26
2018-02-20T04:05:24.805Z,0.27
2018-02-20T04:06:24.841Z,0.27
2018-02-20T04:07:24.814Z,0.28
2018-02-20T04:08:24.810Z,0.29
2018-02-20T04:09:24.803Z,0.28
2018-02-20T04:10:24.810Z,0.29
2018-02-20T04:11:24.818Z,0.28
2018-02-20T04:12:24.968Z,0.28
2018-02-20T04:13:24.964Z,0.27
2018-02-20T04:14:25.022Z,0.28
2018-02-20T04:15:24.980Z,0.28
2018-02-20T04:16:24.969Z,0.31
2018-02-20T04:17:24.989Z,0.33
2018-02-20T04:18:24.979Z,0.31
2018-02-20T04:19:24.991Z,0.29
2018-02-20T04:20:24.996Z,0.26
2018-02-20T04:21:24.988Z,0.26
2018-02-20T04:22:24.985Z,0.22
2018-02-20T04:23:25.013Z,0.22
2018-02-20T04:24:25.023Z,0.22
2018-02-20T04:25:25.014Z,0.25
2018-02-20T04:26:25.035Z,0.23
2018-02-20T04:27:25.004Z,0.23
2018-02-20T04:28:25.000Z,0.24
2018-02-20T04:29:25.039Z,0.24
2018-02-20T04:30:24.875Z,0.23
2018-02-20T04:31:25.480Z,0.25
2018-02-20T04:32:25.030Z,0.22
2018-02-20T04:33:25.050Z,0.24
2018-02-20T04:34:25.231Z,0.22
2018-02-20T04:35:25.053Z,0.24
2018-02-20T04:36:25.052Z,0.24
2018-02-20T04:37:25.054Z,0.23
2018-02-20T04:38:25.059Z,0.22
2018-02-20T04:39:25.073Z,0.21
2018-02-20T04:40:24.910Z,0.19
2018-02-20T04:41:25.063Z,0.2
2018-02-20T04:42:24.936Z,0.21
2018-02-20T04:43:25.067Z,0.22
2018-02-20T04:44:25.073Z,0.24
2018-02-20T04:45:25.089Z,0.21
2018-02-20T04:46:25.064Z,0.24
2018-02-20T04:47:24.933Z,0.22
2018-02-20T04:48:24.905Z,0.23
2018-02-20T04:49:24.900Z,0.23
2018-02-20T04:50:24.950Z,0.27
2018-02-20T04:51:24.954Z,0.27
2018-02-20T04:52:24.910Z,0.27
2018-02-20T04:53:24.936Z,0.27
2018-02-20T04:54:25.327Z,0.31
2018-02-20T04:55:25.279Z,0.32
2018-02-20T04:56:24.961Z,0.32
2018-02-20T04:57:24.981Z,0.28
2018-02-20T04:58:24.947Z,0.27
2018-02-20T04:59:24.994Z,0.18
2018-02-20T05:00:24.967Z,0.18
2018-02-20T05:01:24.957Z,0.17
2018-02-20T05:02:24.963Z,0.19
2018-02-20T05:03:24.964Z,0.2
2018-02-20T05:04:24.987Z,0.21
2018-02-20T05:05:24.958Z,0.22
2018-02-20T05:06:24.973Z,0.23
2018-02-20T05:07:24.985Z,0.25
2018-02-20T05:08:25.012Z,0.23
2018-02-20T05:09:25.033Z,0.23
2018-02-20T05:10:25.007Z,0.24
2018-02-20T05:11:25.047Z,0.24
2018-02-20T05:12:25.308Z,0.26
2018-02-20T05:13:24.976Z,0.26
2018-02-20T05:14:24.981Z,0.27
2018-02-20T05:15:25.718Z,0.28
2018-02-20T05:16:25.018Z,0.29
2018-02-20T05:17:25.021Z,0.31
2018-02-20T05:18:25.045Z,0.29
2018-02-20T05:19:25.217Z,0.31
2018-02-20T05:20:25.017Z,0.31
2018-02-20T05:21:25.059Z,0.32
2018-02-20T05:22:25.046Z,0.32
2018-02-20T05:23:25.220Z,0.31
2018-02-20T05:24:25.252Z,0.27
2018-02-20T05:25:25.203Z,0.31
2018-02-20T05:26:25.222Z,0.28
2018-02-20T05:27:25.207Z,0.28
2018-02-20T05:28:25.356Z,0.26
2018-02-20T05:29:25.183Z,0.26
2018-02-20T05:30:25.200Z,0.25
2018-02-20T05:31:25.246Z,0.25
2018-02-20T05:32:25.183Z,0.26
2018-02-20T05:33:25.227Z,0.25
2018-02-20T05:34:25.158Z,0.28
2018-02-20T05:35:25.208Z,0.25
2018-02-20T05:36:25.214Z,0.25
2018-02-20T05:37:25.226Z,0.26
2018-02-20T05:38:25.220Z,0.22
2018-02-20T05:39:25.223Z,0.2
2018-02-20T05:40:25.251Z,0.2
2018-02-20T05:41:25.249Z,0.22
2018-02-20T05:42:25.245Z,0.22
2018-02-20T05:43:25.089Z,0.24
2018-02-20T05:44:25.250Z,0.23
2018-02-20T05:45:25.273Z,0.22
2018-02-20T05:46:25.266Z,0.23
2018-02-20T05:47:25.218Z,0.24
2018-02-20T05:48:25.248Z,0.27
2018-02-20T05:49:25.287Z,0.28
2018-02-20T05:50:25.311Z,0.28
2018-02-20T05:51:25.264Z,0.29
2018-02-20T05:52:25.283Z,0.3
2018-02-20T05:53:25.291Z,0.31
2018-02-20T05:54:25.310Z,0.33
2018-02-20T05:55:25.323Z,0.32
2018-02-20T05:56:25.317Z,0.32
2018-02-20T05:57:25.379Z,0.3
2018-02-20T05:58:25.320Z,0.28
2018-02-20T05:59:25.185Z,0.13
2018-02-20T06:00:25.179Z,0.06
2018-02-20T06:01:25.375Z,0.1
2018-02-20T06:02:25.160Z,0.11
2018-02-20T06:03:25.155Z,0.14
2018-02-20T06:04:25.174Z,0.17
2018-02-20T06:05:25.182Z,0.16
2018-02-20T06:06:25.193Z,0.09
2018-02-20T06:07:25.187Z,0.13
2018-02-20T06:08:25.806Z,0.11
2018-02-20T06:09:25.217Z,0.14
2018-02-20T06:10:25.202Z,0.17
2018-02-20T06:11:25.208Z,0.19
2018-02-20T06:12:25.217Z,0.21
2018-02-20T06:13:25.201Z,0.24
2018-02-20T06:14:25.208Z,0.24
2018-02-20T06:15:25.208Z,0.28
2018-02-20T06:16:25.262Z,0.31
2018-02-20T06:17:25.223Z,0.33
2018-02-20T06:18:25.209Z,0.34
2018-02-20T06:19:25.248Z,0.35
2018-02-20T06:20:25.226Z,0.37
2018-02-20T06:21:25.264Z,0.38
2018-02-20T06:22:25.222Z,0.39
2018-02-20T06:23:25.213Z,0.39
2018-02-20T06:24:25.219Z,0.33
2018-02-20T06:25:25.227Z,0.31
2018-02-20T06:26:25.233Z,0.33
2018-02-20T06:27:25.245Z,0.33
2018-02-20T06:28:25.249Z,0.34
2018-02-20T06:29:25.355Z,0.35
2018-02-20T06:30:25.255Z,0.3
2018-02-20T06:31:25.239Z,0.28
2018-02-20T06:32:25.241Z,0.3
2018-02-20T06:33:25.293Z,0.33
2018-02-20T06:34:25.270Z,0.31
2018-02-20T06:35:25.403Z,0.26
2018-02-20T06:36:25.484Z,0.25
2018-02-20T06:37:25.452Z,0.19
2018-02-20T06:38:25.465Z,0.19
2018-02-20T06:39:25.531Z,0.2
2018-02-20T06:40:25.459Z,0.18
2018-02-20T06:41:25.451Z,0.17
2018-02-20T06:42:25.490Z,0.2
2018-02-20T06:43:25.415Z,0.21
2018-02-20T06:44:25.542Z,0.21
2018-02-20T06:45:25.500Z,0.23
2018-02-20T06:46:25.479Z,0.2
2018-02-20T06:47:25.468Z,0.16
2018-02-20T06:48:25.287Z,0.17
2018-02-20T06:49:25.289Z,0.15
2018-02-20T06:50:25.507Z,0.17
2018-02-20T06:51:26.160Z,0.16
2018-02-20T06:52:25.278Z,0.19
2018-02-20T06:53:25.319Z,0.19
2018-02-20T06:54:25.318Z,0.2
2018-02-20T06:55:25.318Z,0.18
2018-02-20T06:56:25.332Z,0.18
2018-02-20T06:57:25.307Z,0.17
2018-02-20T06:58:25.329Z,0.13
2018-02-20T06:59:25.355Z,0.13
2018-02-20T07:00:25.309Z,0.1
2018-02-20T07:01:25.335Z,0.08
2018-02-20T07:02:25.351Z,0.11
2018-02-20T07:03:25.367Z,0.13
2018-02-20T07:04:25.376Z,0.17
2018-02-20T07:05:25.342Z,0.21
2018-02-20T07:06:25.370Z,0.22
2018-02-20T07:07:25.345Z,0.23
2018-02-20T07:08:25.365Z,0.26
2018-02-20T07:09:25.394Z,0.25
2018-02-20T07:10:25.359Z,0.28
2018-02-20T07:11:25.411Z,0.29
2018-02-20T07:12:25.542Z,0.32
2018-02-20T07:13:25.376Z,0.32
2018-02-20T07:14:25.612Z,0.29
2018-02-20T07:15:25.366Z,0.27
2018-02-20T07:16:25.383Z,0.25
2018-02-20T07:17:25.359Z,0.23
2018-02-20T07:18:25.378Z,0.26
2018-02-20T07:19:25.420Z,0.26
2018-02-20T07:20:25.375Z,0.21
2018-02-20T07:21:25.380Z,0.21
2018-02-20T07:22:25.373Z,0.23
2018-02-20T07:23:25.369Z,0.23
2018-02-20T07:24:25.604Z,0.22
2018-02-20T07:25:25.376Z,0.25
2018-02-20T07:26:25.370Z,0.24
2018-02-20T07:27:25.395Z,0.26
2018-02-20T07:28:25.408Z,0.21
2018-02-20T07:29:25.413Z,0.25
2018-02-20T07:30:25.563Z,0.23
2018-02-20T07:31:25.391Z,0.19
2018-02-20T07:32:25.431Z,0.16
2018-02-20T07:33:25.408Z,0.14
2018-02-20T07:34:25.438Z,0.11
2018-02-20T07:35:25.436Z,0.14
2018-02-20T07:36:25.452Z,0.21
2018-02-20T07:37:25.438Z,0.23
2018-02-20T07:38:25.835Z,0.28
2018-02-20T07:39:25.675Z,0.29
2018-02-20T07:40:25.424Z,0.3
2018-02-20T07:41:25.449Z,0.35
2018-02-20T07:42:25.412Z,0.36
2018-02-20T07:43:25.428Z,0.39
2018-02-20T07:44:25.429Z,0.4
2018-02-20T07:45:25.530Z,0.44
2018-02-20T07:46:25.625Z,0.46
2018-02-20T07:47:25.617Z,0.46
2018-02-20T07:48:25.635Z,0.5
2018-02-20T07:49:25.436Z,0.49
2018-02-20T07:50:25.427Z,0.53
2018-02-20T07:51:25.607Z,0.53
2018-02-20T07:52:25.654Z,0.57
2018-02-20T07:53:25.637Z,0.57
2018-02-20T07:54:25.738Z,0.59
2018-02-20T07:55:25.655Z,0.59
2018-02-20T07:56:25.653Z,0.62
2018-02-20T07:57:25.740Z,0.6
2018-02-20T07:58:26.491Z,0.59
2018-02-20T07:59:25.684Z,0.59
2018-02-20T08:00:25.756Z,0.61
2018-02-20T08:01:26.335Z,0.61
2018-02-20T08:02:25.732Z,0.62
2018-02-20T08:03:25.848Z,0.62
2018-02-20T08:04:25.758Z,0.62
2018-02-20T08:05:25.786Z,0.64
2018-02-20T08:06:25.766Z,0.65
2018-02-20T08:07:25.531Z,0.66
2018-02-20T08:08:25.857Z,0.69
2018-02-20T08:09:25.541Z,0.7
2018-02-20T08:10:25.548Z,0.75
2018-02-20T08:11:25.584Z,0.71
2018-02-20T08:12:25.576Z,0.75
2018-02-20T08:13:25.750Z,0.72
2018-02-20T08:14:25.786Z,0.74
2018-02-20T08:15:25.792Z,0.77
2018-02-20T08:16:25.754Z,0.77
2018-02-20T08:17:26.145Z,0.78
2018-02-20T08:18:25.794Z,0.81
2018-02-20T08:19:25.783Z,0.83
2018-02-20T08:20:25.756Z,0.82
2018-02-20T08:21:25.787Z,0.82
2018-02-20T08:22:25.593Z,0.83
2018-02-20T08:23:25.658Z,0.83
2018-02-20T08:24:25.642Z,0.84
2018-02-20T08:25:25.637Z,0.83
2018-02-20T08:26:25.650Z,0.83
2018-02-20T08:27:25.619Z,0.79
2018-02-20T08:28:25.641Z,0.79
2018-02-20T08:29:25.636Z,0.77
2018-02-20T08:30:25.635Z,0.81
2018-02-20T08:31:25.643Z,0.82
2018-02-20T08:32:25.633Z,0.81
2018-02-20T08:33:25.753Z,0.82
2018-02-20T08:34:25.685Z,0.85
2018-02-20T08:35:25.631Z,0.86
2018-02-20T08:36:25.756Z,0.89
2018-02-20T08:37:25.659Z,0.9
2018-02-20T08:38:25.680Z,0.91
2018-02-20T08:39:25.657Z,0.91
2018-02-20T08:40:25.673Z,0.88
2018-02-20T08:41:25.698Z,0.9
2018-02-20T08:42:25.660Z,0.9
2018-02-20T08:43:25.703Z,0.92
2018-02-20T08:44:25.660Z,0.96
2018-02-20T08:45:25.651Z,0.96
2018-02-20T08:46:25.649Z,0.97
2018-02-20T08:47:25.661Z,0.96
2018-02-20T08:48:25.687Z,0.97
2018-02-20T08:49:25.713Z,0.98
2018-02-20T08:50:25.966Z,1.02
2018-02-20T08:51:25.673Z,1.02
2018-02-20T08:52:25.673Z,1.01
2018-02-20T08:53:25.767Z,0.98
2018-02-20T08:54:25.721Z,0.98
2018-02-20T08:55:25.689Z,0.94
2018-02-20T08:56:25.683Z,0.95
2018-02-20T08:57:25.693Z,0.96
2018-02-20T08:58:25.892Z,0.98
2018-02-20T08:59:25.862Z,0.97
2018-02-20T09:00:25.939Z,0.96
2018-02-20T09:01:25.910Z,0.99
2018-02-20T09:02:25.718Z,1.03
2018-02-20T09:03:25.922Z,1.07
2018-02-20T09:04:25.883Z,1.11
2018-02-20T09:05:25.892Z,1.11
2018-02-20T09:06:25.900Z,1.14
2018-02-20T09:07:25.910Z,1.15
2018-02-20T09:08:25.928Z,1.17
2018-02-20T09:09:25.901Z,1.19
2018-02-20T09:10:25.892Z,1.19
2018-02-20T09:11:25.898Z,1.21
2018-02-20T09:12:25.908Z,1.2
2018-02-20T09:13:26.051Z,1.17
2018-02-20T09:14:25.902Z,1.21
2018-02-20T09:15:25.929Z,1.25
2018-02-20T09:16:25.945Z,1.26
2018-02-20T09:17:25.953Z,1.22
2018-02-20T09:18:25.955Z,1.24
2018-02-20T09:19:25.734Z,1.26
2018-02-20T09:20:25.935Z,1.27
2018-02-20T09:21:25.962Z,1.26
2018-02-20T09:22:25.911Z,1.29
2018-02-20T09:23:25.801Z,1.32
2018-02-20T09:24:25.805Z,1.34
2018-02-20T09:25:25.924Z,1.34
2018-02-20T09:26:25.946Z,1.38
2018-02-20T09:27:25.944Z,1.42
2018-02-20T09:28:25.842Z,1.4
2018-02-20T09:29:25.944Z,1.44
2018-02-20T09:30:25.957Z,1.47
2018-02-20T09:31:26.055Z,1.47
2018-02-20T09:32:25.851Z,1.5
2018-02-20T09:33:25.991Z,1.51
2018-02-20T09:34:25.868Z,1.51
2018-02-20T09:35:25.836Z,1.53
2018-02-20T09:36:25.892Z,1.51
2018-02-20T09:37:25.885Z,1.48
2018-02-20T09:38:26.111Z,1.47
2018-02-20T09:39:25.881Z,1.51
2018-02-20T09:40:26.443Z,1.53
2018-02-20T09:41:25.849Z,1.58
2018-02-20T09:42:25.887Z,1.62
2018-02-20T09:43:25.879Z,1.62
2018-02-20T09:44:26.444Z,1.66
2018-02-20T09:45:26.507Z,1.68
2018-02-20T09:46:25.903Z,1.72
2018-02-20T09:47:25.858Z,1.76
2018-02-20T09:48:25.914Z,1.78
2018-02-20T09:49:25.857Z,1.78
2018-02-20T09:50:25.891Z,1.79
2018-02-20T09:51:25.863Z,1.79
2018-02-20T09:52:25.904Z,1.82
2018-02-20T09:53:25.900Z,1.83
2018-02-20T09:54:25.919Z,1.81
2018-02-20T09:55:26.052Z,1.84
2018-02-20T09:56:26.003Z,1.88
2018-02-20T09:57:26.043Z,1.88
2018-02-20T09:58:25.989Z,1.83
2018-02-20T09:59:25.941Z,1.82
2018-02-20T10:00:25.951Z,1.81
2018-02-20T10:01:26.010Z,1.8
2018-02-20T10:02:27.071Z,1.8
2018-02-20T10:03:25.939Z,1.82
2018-02-20T10:04:26.926Z,1.84
2018-02-20T10:05:25.980Z,1.9
2018-02-20T10:06:25.932Z,1.98
2018-02-20T10:07:25.963Z,1.95
2018-02-20T10:08:25.943Z,1.96
2018-02-20T10:09:25.915Z,1.97
2018-02-20T10:10:26.176Z,2.03
2018-02-20T10:11:26.098Z,2.06
2018-02-20T10:12:26.571Z,2.12
2018-02-20T10:13:26.134Z,2.14
2018-02-20T10:14:26.115Z,2.16
2018-02-20T10:15:25.999Z,2.17
2018-02-20T10:16:25.951Z,2.21
2018-02-20T10:17:26.106Z,2.26
2018-02-20T10:18:26.088Z,2.29
2018-02-20T10:19:25.959Z,2.28
2018-02-20T10:20:26.134Z,2.33
2018-02-20T10:21:25.985Z,2.37
2018-02-20T10:22:26.100Z,2.38
2018-02-20T10:23:26.087Z,2.39
2018-02-20T10:24:26.127Z,2.41
2018-02-20T10:25:25.944Z,2.42
2018-02-20T10:26:26.140Z,2.31
2018-02-20T10:27:25.974Z,2.35
2018-02-20T10:28:26.024Z,2.38
2018-02-20T10:29:25.951Z,2.39
2018-02-20T10:30:25.953Z,2.4
2018-02-20T10:31:25.956Z,2.44
2018-02-20T10:32:25.969Z,2.42
2018-02-20T10:33:25.964Z,2.39
2018-02-20T10:34:26.003Z,2.3
2018-02-20T10:35:26.003Z,2.27
2018-02-20T10:36:26.038Z,2.23
2018-02-20T10:37:25.992Z,2.25
2018-02-20T10:38:25.964Z,2.33
2018-02-20T10:39:26.001Z,2.38
2018-02-20T10:40:26.025Z,2.44
2018-02-20T10:41:26.040Z,2.47
2018-02-20T10:42:26.008Z,2.51
2018-02-20T10:43:26.090Z,2.53
2018-02-20T10:44:26.004Z,2.57
2018-02-20T10:45:26.000Z,2.56
2018-02-20T10:46:26.040Z,2.61
2018-02-20T10:47:26.040Z,2.63
2018-02-20T10:48:26.061Z,2.63
2018-02-20T10:49:26.044Z,2.62
2018-02-20T10:50:26.045Z,2.56
2018-02-20T10:51:26.340Z,2.57
2018-02-20T10:52:26.032Z,2.57
2018-02-20T10:53:26.043Z,2.6
2018-02-20T10:54:26.070Z,2.63
2018-02-20T10:55:26.126Z,2.65
2018-02-20T10:56:26.100Z,2.62
2018-02-20T10:57:26.086Z,2.62
2018-02-20T10:58:26.091Z,2.61
2018-02-20T10:59:26.037Z,2.65
2018-02-20T11:00:26.036Z,2.69
2018-02-20T11:01:26.021Z,2.71
2018-02-20T11:02:26.058Z,2.72
2018-02-20T11:03:26.060Z,2.75
2018-02-20T11:04:26.043Z,2.74
2018-02-20T11:05:26.094Z,2.74
2018-02-20T11:06:26.055Z,2.68
2018-02-20T11:07:26.046Z,2.7
2018-02-20T11:08:26.075Z,2.67
2018-02-20T11:09:26.061Z,2.71
2018-02-20T11:10:26.066Z,2.76
2018-02-20T11:11:26.058Z,2.82
2018-02-20T11:12:26.059Z,2.87
2018-02-20T11:13:26.116Z,2.9
2018-02-20T11:14:26.090Z,2.95
2018-02-20T11:15:26.181Z,2.93
2018-02-20T11:16:26.049Z,2.94
2018-02-20T11:17:26.061Z,3.01
2018-02-20T11:18:26.101Z,3.02
2018-02-20T11:19:26.138Z,3.06
2018-02-20T11:20:26.082Z,3.08
2018-02-20T11:21:26.070Z,3.13
2018-02-20T11:22:26.193Z,3.15
2018-02-20T11:23:26.115Z,3.13
2018-02-20T11:24:26.170Z,3.08
2018-02-20T11:25:26.190Z,3
2018-02-20T11:26:26.193Z,3.04
2018-02-20T11:27:26.203Z,3.05
2018-02-20T11:28:26.520Z,3.07
2018-02-20T11:29:26.220Z,3.1
2018-02-20T11:30:26.200Z,3.09
2018-02-20T11:31:26.203Z,3.03
2018-02-20T11:32:26.214Z,2.97
2018-02-20T11:33:26.242Z,2.97
2018-02-20T11:34:26.235Z,3.01
2018-02-20T11:35:26.222Z,3.02
2018-02-20T11:36:26.226Z,2.94
2018-02-20T11:37:26.136Z,2.91
2018-02-20T11:38:26.241Z,2.91
2018-02-20T11:39:26.231Z,2.92
2018-02-20T11:40:26.117Z,2.96
2018-02-20T11:41:26.235Z,3
2018-02-20T11:42:26.220Z,2.99
2018-02-20T11:43:26.309Z,3.03
2018-02-20T11:44:26.249Z,3
2018-02-20T11:45:26.263Z,2.99
2018-02-20T11:46:26.325Z,3
2018-02-20T11:47:26.255Z,3.03
2018-02-20T11:48:26.157Z,3.04
2018-02-20T11:49:26.230Z,3.06
2018-02-20T11:50:26.233Z,3.07
2018-02-20T11:51:26.248Z,3.13
2018-02-20T11:52:26.251Z,3.12
2018-02-20T11:53:26.252Z,3.06
2018-02-20T11:54:26.188Z,3.08
2018-02-20T11:55:26.259Z,3.09
2018-02-20T11:56:26.273Z,3.16
2018-02-20T11:57:26.274Z,3.19
2018-02-20T11:58:26.260Z,3.23
2018-02-20T11:59:26.466Z,3.26
2018-02-20T12:00:26.271Z,3.23
2018-02-20T12:01:26.499Z,3.19
2018-02-20T12:02:26.203Z,3.13
2018-02-20T12:03:26.284Z,3.15
2018-02-20T12:04:26.250Z,3.12
2018-02-20T12:05:26.375Z,3.12
2018-02-20T12:06:26.190Z,3.11
2018-02-20T12:07:26.178Z,3.13
2018-02-20T12:08:26.198Z,3.2
2018-02-20T12:09:26.257Z,3.23
2018-02-20T12:10:26.199Z,3.25
2018-02-20T12:11:26.183Z,3.27
2018-02-20T12:12:26.212Z,3.33
2018-02-20T12:13:26.215Z,3.3
2018-02-20T12:14:26.226Z,3.32
2018-02-20T12:15:26.207Z,3.34
2018-02-20T12:16:26.206Z,3.31
2018-02-20T12:17:26.211Z,3.32
2018-02-20T12:18:26.219Z,3.37
2018-02-20T12:19:26.197Z,3.37
2018-02-20T12:20:26.184Z,3.39
2018-02-20T12:21:26.211Z,3.41
2018-02-20T12:22:26.210Z,3.38
2018-02-20T12:23:26.204Z,3.39
2018-02-20T12:24:26.190Z,3.38
2018-02-20T12:25:26.198Z,3.39
2018-02-20T12:26:26.212Z,3.39
2018-02-20T12:27:26.211Z,3.32
2018-02-20T12:28:26.199Z,3.26
2018-02-20T12:29:26.221Z,3.18
2018-02-20T12:30:26.215Z,3.19
2018-02-20T12:31:26.212Z,3.21
2018-02-20T12:32:26.186Z,3.25
2018-02-20T12:33:26.343Z,3.21
2018-02-20T12:34:26.375Z,3.27
2018-02-20T12:35:26.385Z,3.26
2018-02-20T12:36:26.368Z,3.27
2018-02-20T12:37:26.468Z,3.29
2018-02-20T12:38:26.371Z,3.29
2018-02-20T12:39:26.405Z,3.25
2018-02-20T12:40:26.375Z,3.27
2018-02-20T12:41:26.383Z,3.27
2018-02-20T12:42:26.246Z,3.27
2018-02-20T12:43:26.446Z,3.24
2018-02-20T12:44:26.279Z,3.21
2018-02-20T12:45:26.402Z,3.22
2018-02-20T12:46:26.240Z,3.2
2018-02-20T12:47:26.270Z,3.27
2018-02-20T12:48:26.396Z,3.37
2018-02-20T12:49:26.535Z,3.39
2018-02-20T12:50:26.426Z,3.32
2018-02-20T12:51:26.499Z,3.38
2018-02-20T12:52:26.455Z,3.38
2018-02-20T12:53:26.280Z,3.41
2018-02-20T12:54:26.449Z,3.45
2018-02-20T12:55:26.253Z,3.47
2018-02-20T12:56:26.454Z,3.52
2018-02-20T12:57:26.259Z,3.52
2018-02-20T12:58:26.295Z,3.57
2018-02-20T12:59:26.302Z,3.57
2018-02-20T13:00:26.284Z,3.55
2018-02-20T13:01:26.439Z,3.58
2018-02-20T13:02:26.317Z,3.63
2018-02-20T13:03:26.269Z,3.65
2018-02-20T13:04:26.449Z,3.65
2018-02-20T13:05:26.431Z,3.69
2018-02-20T13:06:26.653Z,3.66
2018-02-20T13:07:26.277Z,3.71
2018-02-20T13:08:26.443Z,3.69
2018-02-20T13:09:26.328Z,3.66
2018-02-20T13:10:26.304Z,3.6
2018-02-20T13:11:26.299Z,3.57
2018-02-20T13:12:26.314Z,3.55
2018-02-20T13:13:26.302Z,3.49
2018-02-20T13:14:26.309Z,3.51
2018-02-20T13:15:26.318Z,3.53
2018-02-20T13:16:26.301Z,3.56
2018-02-20T13:17:26.304Z,3.55
2018-02-20T13:18:26.321Z,3.56
2018-02-20T13:19:26.520Z,3.59
2018-02-20T13:20:26.646Z,3.6